createdAt,value
2022-08-01T00:00:10.382Z,0.93
2022-08-01T00:02:42.002Z,0.93
2022-08-01T00:05:11.749Z,0.80
2022-08-01T00:07:39.043Z,0.60
2022-08-01T00:10:12.279Z,0.70
2022-08-01T00:12:40.829Z,0.90
2022-08-01T00:15:10.172Z,1.25
2022-08-01T00:17:37.593Z,0.80
2022-08-01T00:20:06.777Z,1.08
2022-08-01T00:22:35.180Z,0.82
2022-08-01T00:25:02.671Z,1.27
2022-08-01T00:27:30.091Z,1.02
2022-08-01T00:30:11.378Z,0.80
2022-08-01T00:32:42.613Z,0.85
2022-08-01T00:35:10.551Z,1.00
2022-08-01T00:37:37.858Z,0.77
2022-08-01T00:40:05.659Z,0.80
2022-08-01T00:42:32.936Z,0.70
2022-08-01T00:45:00.840Z,0.80
2022-08-01T00:47:28.030Z,1.00
2022-08-01T00:49:55.742Z,0.75
2022-08-01T00:52:23.019Z,0.77
2022-08-01T00:54:50.208Z,0.80
2022-08-01T00:57:27.874Z,0.98
2022-08-01T01:00:07.617Z,0.77
2022-08-01T01:02:35.994Z,0.75
2022-08-01T01:05:04.036Z,0.85
2022-08-01T01:07:57.230Z,0.80
2022-08-01T01:10:33.516Z,0.80
2022-08-01T01:13:07.170Z,0.80
2022-08-01T01:15:41.239Z,0.90
2022-08-01T01:18:23.544Z,0.73
2022-08-01T01:21:07.730Z,0.50
2022-08-01T01:23:53.244Z,0.57
2022-08-01T01:26:58.655Z,0.70
2022-08-01T01:29:58.882Z,0.50
2022-08-01T01:32:34.409Z,0.60
2022-08-01T01:35:06.029Z,0.80
2022-08-01T01:37:35.391Z,0.70
2022-08-01T01:40:04.892Z,0.70
2022-08-01T01:42:33.395Z,0.85
2022-08-01T01:45:02.767Z,0.80
2022-08-01T01:47:32.610Z,0.85
2022-08-01T01:50:03.397Z,0.90
2022-08-01T01:52:32.441Z,1.05
2022-08-01T01:55:02.508Z,0.80
2022-08-01T01:57:32.168Z,0.60
2022-08-01T02:00:00.492Z,1.00
2022-08-01T02:02:29.145Z,0.60
2022-08-01T02:04:59.229Z,0.65
2022-08-01T02:07:28.721Z,0.77
2022-08-01T02:09:57.575Z,0.80
2022-08-01T02:12:25.951Z,0.98
2022-08-01T02:14:55.793Z,0.80
2022-08-01T02:17:25.858Z,0.90
2022-08-01T02:19:55.207Z,0.90
2022-08-01T02:22:35.953Z,1.00
2022-08-01T02:25:05.214Z,0.77
2022-08-01T02:27:43.776Z,0.77
2022-08-01T02:30:15.173Z,0.90
2022-08-01T02:32:52.571Z,0.93
2022-08-01T02:35:24.604Z,0.80
2022-08-01T02:37:54.107Z,1.10
2022-08-01T02:40:21.962Z,0.77
2022-08-01T02:42:53.644Z,0.70
2022-08-01T02:45:25.669Z,1.00
2022-08-01T02:47:58.990Z,0.90
2022-08-01T02:50:29.716Z,0.77
2022-08-01T02:52:59.178Z,0.88
2022-08-01T02:55:27.145Z,0.70
2022-08-01T02:58:00.913Z,0.60
2022-08-01T03:00:30.909Z,0.70
2022-08-01T03:03:00.559Z,0.80
2022-08-01T03:05:28.458Z,0.50
2022-08-01T03:08:02.604Z,0.95
2022-08-01T03:10:34.019Z,0.80
2022-08-01T03:13:04.733Z,0.77
2022-08-01T03:15:34.920Z,0.60
2022-08-01T03:18:03.940Z,0.60
2022-08-01T03:20:33.531Z,0.60
2022-08-01T03:23:09.759Z,0.60
2022-08-01T03:25:41.025Z,0.68
2022-08-01T03:28:10.062Z,0.82
2022-08-01T03:30:39.115Z,0.50
2022-08-01T03:33:06.377Z,0.50
2022-08-01T03:35:41.147Z,0.60
2022-08-01T03:38:16.037Z,0.50
2022-08-01T03:40:57.722Z,0.50
2022-08-01T03:43:39.120Z,0.50
2022-08-01T03:46:09.905Z,0.70
2022-08-01T03:48:42.007Z,0.52
2022-08-01T03:51:11.211Z,0.60
2022-08-01T03:53:42.295Z,0.98
2022-08-01T03:56:11.734Z,0.80
2022-08-01T03:58:41.588Z,0.60
2022-08-01T04:01:15.801Z,0.60
2022-08-01T04:03:44.946Z,0.90
2022-08-01T04:06:12.426Z,0.80
2022-08-01T04:08:41.205Z,0.75
2022-08-01T04:11:10.525Z,0.80
2022-08-01T04:13:38.492Z,1.00
2022-08-01T04:16:06.411Z,0.80
2022-08-01T04:18:33.797Z,0.98
2022-08-01T04:21:00.990Z,0.60
2022-08-01T04:23:32.678Z,0.60
2022-08-01T04:26:07.083Z,0.60
2022-08-01T04:28:37.305Z,0.80
2022-08-01T04:31:10.850Z,1.00
2022-08-01T04:33:40.075Z,0.77
2022-08-01T04:36:10.284Z,0.80
2022-08-01T04:38:38.475Z,0.50
2022-08-01T04:41:08.940Z,0.70
2022-08-01T04:43:38.030Z,0.70
2022-08-01T04:46:07.033Z,0.80
2022-08-01T04:48:38.000Z,0.80
2022-08-01T04:51:12.170Z,0.90
2022-08-01T04:53:39.532Z,0.70
2022-08-01T04:56:07.037Z,0.80
2022-08-01T04:58:34.930Z,0.88
2022-08-01T05:01:02.174Z,0.80
2022-08-01T05:03:29.457Z,0.70
2022-08-01T05:05:56.878Z,0.73
2022-08-01T05:08:24.176Z,0.80
2022-08-01T05:10:51.496Z,0.85
2022-08-01T05:13:18.766Z,0.80
2022-08-01T05:15:46.045Z,1.10
2022-08-01T05:18:13.337Z,1.13
2022-08-01T05:20:42.581Z,0.75
2022-08-01T05:23:11.121Z,0.80
2022-08-01T05:25:58.918Z,0.60
2022-08-01T05:28:26.402Z,0.75
2022-08-01T05:30:55.996Z,0.80
2022-08-01T05:33:23.627Z,0.50
2022-08-01T05:35:50.947Z,0.55
2022-08-01T05:38:18.224Z,0.60
2022-08-01T05:40:45.758Z,0.57
2022-08-01T05:43:13.059Z,0.77
2022-08-01T05:45:42.508Z,0.80
2022-08-01T05:48:09.799Z,0.60
2022-08-01T05:50:37.019Z,0.55
2022-08-01T05:53:04.518Z,0.50
2022-08-01T05:55:31.785Z,1.08
2022-08-01T05:57:58.970Z,0.80
2022-08-01T06:00:26.262Z,0.70
2022-08-01T06:02:53.617Z,0.70
2022-08-01T06:05:20.932Z,0.63
2022-08-01T06:07:48.162Z,0.60
2022-08-01T06:10:15.624Z,0.65
2022-08-01T06:12:43.866Z,0.80
2022-08-01T06:15:11.939Z,0.60
2022-08-01T06:17:40.356Z,0.63
2022-08-01T06:20:08.363Z,1.00
2022-08-01T06:22:35.744Z,0.75
2022-08-01T06:25:03.029Z,1.10
2022-08-01T06:27:30.486Z,0.80
2022-08-01T06:29:58.266Z,0.90
2022-08-01T06:32:27.220Z,0.80
2022-08-01T06:34:56.483Z,1.10
2022-08-01T06:37:24.347Z,1.00
2022-08-01T06:39:51.757Z,0.90
2022-08-01T06:42:19.378Z,0.70
2022-08-01T06:44:47.245Z,0.93
2022-08-01T06:47:14.645Z,1.02
2022-08-01T06:49:42.012Z,0.90
2022-08-01T06:52:09.746Z,0.90
2022-08-01T06:54:37.179Z,0.80
2022-08-01T06:57:07.786Z,1.02
2022-08-01T06:59:35.187Z,0.88
2022-08-01T07:02:02.704Z,1.23
2022-08-01T07:04:30.335Z,1.02
2022-08-01T07:06:58.226Z,0.90
2022-08-01T07:09:25.691Z,0.85
2022-08-01T07:11:53.596Z,0.88
2022-08-01T07:14:21.634Z,1.17
2022-08-01T07:16:49.342Z,1.00
2022-08-01T07:19:17.039Z,1.27
2022-08-01T07:21:45.295Z,1.00
2022-08-01T07:24:15.395Z,1.00
2022-08-01T07:26:53.117Z,1.30
2022-08-01T07:29:24.299Z,1.70
2022-08-01T07:31:56.438Z,1.50
2022-08-01T07:34:24.990Z,1.20
2022-08-01T07:36:53.214Z,2.30
2022-08-01T07:39:20.935Z,1.52
2022-08-01T07:42:05.775Z,1.42
2022-08-01T07:44:36.560Z,1.20
2022-08-01T07:47:04.497Z,1.75
2022-08-01T07:49:36.073Z,1.15
2022-08-01T07:52:06.758Z,1.08
2022-08-01T07:54:34.785Z,1.70
2022-08-01T07:57:03.856Z,1.30
2022-08-01T07:59:31.672Z,1.60
2022-08-01T08:01:59.570Z,1.40
2022-08-01T08:04:28.558Z,1.88
2022-08-01T08:06:56.162Z,1.60
2022-08-01T08:09:24.123Z,1.50
2022-08-01T08:11:51.916Z,2.75
2022-08-01T08:14:19.623Z,1.67
2022-08-01T08:16:47.061Z,1.70
2022-08-01T08:19:14.477Z,1.40
2022-08-01T08:21:45.152Z,1.23
2022-08-01T08:24:25.943Z,1.30
2022-08-01T08:26:57.723Z,1.65
2022-08-01T08:29:26.998Z,1.30
2022-08-01T08:32:44.213Z,1.10
2022-08-01T08:35:13.188Z,1.98
2022-08-01T08:37:47.617Z,1.35
2022-08-01T08:40:17.898Z,1.20
2022-08-01T08:42:47.555Z,1.02
2022-08-01T08:45:14.974Z,1.20
2022-08-01T08:47:45.070Z,1.10
2022-08-01T08:50:29.549Z,1.13
2022-08-01T08:52:57.723Z,1.10
2022-08-01T08:55:26.320Z,0.73
2022-08-01T08:57:54.411Z,1.10
2022-08-01T09:00:21.932Z,0.80
2022-08-01T09:02:50.609Z,1.40
2022-08-01T09:05:19.810Z,1.30
2022-08-01T09:07:47.631Z,0.90
2022-08-01T09:10:15.012Z,0.98
2022-08-01T09:13:12.176Z,1.48
2022-08-01T09:15:52.037Z,1.02
2022-08-01T09:18:35.864Z,1.17
2022-08-01T09:21:15.536Z,1.40
2022-08-01T09:23:53.665Z,1.00
2022-08-01T09:26:31.866Z,1.02
2022-08-01T09:29:01.381Z,1.08
2022-08-01T09:31:38.231Z,1.10
2022-08-01T09:34:06.305Z,0.90
2022-08-01T09:36:54.135Z,1.38
2022-08-01T09:39:27.715Z,0.90
2022-08-01T09:42:01.078Z,0.90
2022-08-01T09:44:42.185Z,1.00
2022-08-01T09:47:11.752Z,1.33
2022-08-01T09:49:50.812Z,1.13
2022-08-01T09:52:25.953Z,1.08
2022-08-01T09:55:05.519Z,0.90
2022-08-01T09:57:33.467Z,1.38
2022-08-01T10:00:09.995Z,1.20
2022-08-01T10:06:50.699Z,1.15
2022-08-01T10:09:40.437Z,1.00
2022-08-01T10:12:15.451Z,1.40
2022-08-01T10:14:46.284Z,1.10
2022-08-01T10:17:19.783Z,1.02
2022-08-01T10:19:51.602Z,1.83
2022-08-01T10:22:27.154Z,1.27
2022-08-01T10:25:46.883Z,1.00
2022-08-01T10:28:24.073Z,0.85
2022-08-01T10:30:53.167Z,1.25
2022-08-01T10:33:50.795Z,1.50
2022-08-01T10:36:11.755Z,1.20
2022-08-01T10:38:40.045Z,1.17
2022-08-01T10:41:08.605Z,1.17
2022-08-01T10:43:36.960Z,0.98
2022-08-01T10:46:05.902Z,0.90
2022-08-01T10:48:53.969Z,1.85
2022-08-01T10:51:51.100Z,1.35
2022-08-01T10:54:13.019Z,1.17
2022-08-01T10:56:48.914Z,1.27
2022-08-01T10:59:49.162Z,1.08
2022-08-01T11:02:19.380Z,0.95
2022-08-01T11:04:59.127Z,1.52
2022-08-01T11:07:50.156Z,1.92
2022-08-01T11:10:20.316Z,1.55
2022-08-01T11:12:51.929Z,1.02
2022-08-01T11:15:29.162Z,1.38
2022-08-01T11:18:01.227Z,1.75
2022-08-01T11:20:34.567Z,1.20
2022-08-01T11:23:07.338Z,1.13
2022-08-01T11:26:05.732Z,1.60
2022-08-01T11:28:32.293Z,1.30
2022-08-01T11:31:11.926Z,1.23
2022-08-01T11:33:46.212Z,1.50
2022-08-01T11:36:17.166Z,1.50
2022-08-01T11:39:01.359Z,1.27
2022-08-01T11:41:38.815Z,1.15
2022-08-01T11:44:11.999Z,1.05
2022-08-01T11:46:56.651Z,1.35
2022-08-01T11:49:36.026Z,1.42
2022-08-01T11:52:13.258Z,1.08
2022-08-01T11:54:43.997Z,1.00
2022-08-01T11:57:22.929Z,1.20
2022-08-01T12:01:02.801Z,1.23
2022-08-01T12:03:34.616Z,1.10
2022-08-01T12:06:03.037Z,1.13
2022-08-01T12:08:37.602Z,1.20
2022-08-01T12:11:07.146Z,1.10
2022-08-01T12:13:45.882Z,0.80
2022-08-01T12:16:13.802Z,0.80
2022-08-01T12:18:44.743Z,0.70
2022-08-01T12:21:12.773Z,0.90
2022-08-01T12:23:40.042Z,0.65
2022-08-01T12:26:07.734Z,0.57
2022-08-01T12:28:41.734Z,1.02
2022-08-01T12:31:09.053Z,0.93
2022-08-01T12:33:36.404Z,0.55
2022-08-01T12:36:03.853Z,0.80
2022-08-01T12:38:33.984Z,1.00
2022-08-01T12:41:01.596Z,0.73
2022-08-01T12:43:33.099Z,0.80
2022-08-01T12:46:01.864Z,0.88
2022-08-01T12:48:31.246Z,0.77
2022-08-01T12:51:02.224Z,0.80
2022-08-01T12:53:40.886Z,0.80
2022-08-01T12:56:11.741Z,0.70
2022-08-01T12:58:39.571Z,0.80
2022-08-01T13:01:09.971Z,0.80
2022-08-01T13:03:40.360Z,0.50
2022-08-01T13:06:16.496Z,0.80
2022-08-01T13:08:44.721Z,0.52
2022-08-01T13:11:18.143Z,0.60
2022-08-01T13:13:49.730Z,0.57
2022-08-01T13:16:49.029Z,0.50
2022-08-01T13:19:15.436Z,0.32
2022-08-01T13:21:56.101Z,0.70
2022-08-01T13:24:29.319Z,0.75
2022-08-01T13:27:04.350Z,0.60
2022-08-01T13:29:39.134Z,0.50
2022-08-01T13:32:28.641Z,0.68
2022-08-01T13:35:09.017Z,0.60
2022-08-01T13:37:38.585Z,1.00
2022-08-01T13:40:07.951Z,0.60
2022-08-01T13:42:35.613Z,0.68
2022-08-01T13:45:04.380Z,0.60
2022-08-01T13:48:04.027Z,0.60
2022-08-01T13:50:29.879Z,0.50
2022-08-01T13:52:57.542Z,0.90
2022-08-01T13:55:24.785Z,0.68
2022-08-01T13:57:52.013Z,0.70
2022-08-01T14:00:19.248Z,0.90
2022-08-01T14:02:46.435Z,0.88
2022-08-01T14:05:13.829Z,0.88
2022-08-01T14:07:41.331Z,0.80
2022-08-01T14:10:19.655Z,0.88
2022-08-01T14:12:49.371Z,0.70
2022-08-01T14:15:36.622Z,0.70
2022-08-01T14:18:06.162Z,0.80
2022-08-01T14:20:34.959Z,0.85
2022-08-01T14:23:02.678Z,0.55
2022-08-01T14:26:02.868Z,0.82
2022-08-01T14:28:25.160Z,0.70
2022-08-01T14:30:52.749Z,0.70
2022-08-01T14:33:20.179Z,0.90
2022-08-01T14:36:05.421Z,0.57
2022-08-01T14:38:35.570Z,0.60
2022-08-01T14:41:04.584Z,0.55
2022-08-01T14:43:34.284Z,0.65
2022-08-01T14:46:05.335Z,0.70
2022-08-01T14:48:34.047Z,0.50
2022-08-01T14:51:04.291Z,0.40
2022-08-01T14:53:34.289Z,0.88
2022-08-01T14:56:05.128Z,0.52
2022-08-01T14:58:32.485Z,0.63
2022-08-01T15:01:00.085Z,0.60
2022-08-01T15:03:27.701Z,0.73
2022-08-01T15:05:55.104Z,0.82
2022-08-01T15:08:22.321Z,0.70
2022-08-01T15:10:49.555Z,0.90
2022-08-01T15:13:16.775Z,0.90
2022-08-01T15:15:44.079Z,0.73
2022-08-01T15:18:11.865Z,0.70
2022-08-01T15:20:39.224Z,0.70
2022-08-01T15:23:06.656Z,0.70
2022-08-01T15:25:41.210Z,0.80
2022-08-01T15:28:12.962Z,0.70
2022-08-01T15:30:41.377Z,0.63
2022-08-01T15:33:08.756Z,0.80
2022-08-01T15:35:36.468Z,0.90
2022-08-01T15:38:09.042Z,0.60
2022-08-01T15:40:36.287Z,0.90
2022-08-01T15:43:18.859Z,0.73
2022-08-01T15:45:47.777Z,0.95
2022-08-01T15:48:19.152Z,0.70
2022-08-01T15:50:46.841Z,0.98
2022-08-01T15:53:15.480Z,0.80
2022-08-01T15:55:52.516Z,0.57
2022-08-01T15:58:20.351Z,0.77
2022-08-01T16:00:47.877Z,0.73
2022-08-01T16:03:15.202Z,0.70
2022-08-01T16:05:44.463Z,0.70
2022-08-01T16:08:13.615Z,0.68
2022-08-01T16:10:41.558Z,0.88
2022-08-01T16:13:09.525Z,0.90
2022-08-01T16:15:38.288Z,0.70
2022-08-01T16:18:13.454Z,0.70
2022-08-01T16:20:45.601Z,0.60
2022-08-01T16:23:15.093Z,0.75
2022-08-01T16:25:43.844Z,0.60
2022-08-01T16:28:11.357Z,0.50
2022-08-01T16:30:50.841Z,0.60
2022-08-01T16:33:51.699Z,0.60
2022-08-01T16:36:16.956Z,0.73
2022-08-01T16:38:44.794Z,0.70
2022-08-01T16:41:20.118Z,1.05
2022-08-01T16:43:53.506Z,0.80
2022-08-01T16:46:25.691Z,0.60
2022-08-01T16:48:53.587Z,1.08
2022-08-01T16:51:21.190Z,0.90
2022-08-01T16:53:48.646Z,1.05
2022-08-01T16:56:15.973Z,1.00
2022-08-01T16:58:43.344Z,0.90
2022-08-01T17:01:57.930Z,1.00
2022-08-01T17:04:01.642Z,0.93
2022-08-01T17:06:30.929Z,0.88
2022-08-01T17:08:58.738Z,1.00
2022-08-01T17:11:26.949Z,1.02
2022-08-01T17:13:54.394Z,1.05
2022-08-01T17:16:22.290Z,0.88
2022-08-01T17:18:49.905Z,1.00
2022-08-01T17:21:18.292Z,0.90
2022-08-01T17:23:45.971Z,0.90
2022-08-01T17:26:13.658Z,1.00
2022-08-01T17:28:41.130Z,1.00
2022-08-01T17:31:10.659Z,0.80
2022-08-01T17:33:45.530Z,1.10
2022-08-01T17:36:17.960Z,0.95
2022-08-01T17:38:45.553Z,1.10
2022-08-01T17:41:13.498Z,1.02
2022-08-01T17:43:41.282Z,0.90
2022-08-01T17:46:08.951Z,1.00
2022-08-01T17:48:36.623Z,1.20
2022-08-01T17:51:04.498Z,1.45
2022-08-01T17:53:32.107Z,1.02
2022-08-01T17:56:00.896Z,1.40
2022-08-01T17:58:49.019Z,1.20
2022-08-01T18:01:19.189Z,1.30
2022-08-01T18:03:47.169Z,1.10
2022-08-01T18:06:19.874Z,1.23
2022-08-01T18:09:01.903Z,1.17
2022-08-01T18:11:37.258Z,1.00
2022-08-01T18:14:34.730Z,0.98
2022-08-01T18:20:20.355Z,1.10
2022-08-01T18:22:48.725Z,0.77
2022-08-01T18:25:16.141Z,0.90
2022-08-01T18:28:29.461Z,0.80
2022-08-01T18:30:32.019Z,0.80
2022-08-01T18:33:02.355Z,1.63
2022-08-01T18:35:51.475Z,1.23
2022-08-01T18:38:17.449Z,0.90
2022-08-01T18:40:45.979Z,1.10
2022-08-01T18:43:13.497Z,0.80
2022-08-01T18:46:44.154Z,0.80
2022-08-01T18:50:03.356Z,0.80
2022-08-01T18:52:32.214Z,0.85
2022-08-01T18:55:00.975Z,1.25
2022-08-01T18:57:28.442Z,0.98
2022-08-01T18:59:56.102Z,0.95
2022-08-01T19:02:23.379Z,1.25
2022-08-01T19:04:51.596Z,0.98
2022-08-01T19:07:39.434Z,0.90
2022-08-01T19:10:11.719Z,0.90
2022-08-01T19:12:42.660Z,1.20
2022-08-01T19:15:10.867Z,0.90
2022-08-01T19:17:40.765Z,0.90
2022-08-01T19:20:09.416Z,1.35
2022-08-01T19:22:39.287Z,1.00
2022-08-01T19:25:10.091Z,0.80
2022-08-01T19:27:43.758Z,0.90
2022-08-01T19:30:15.224Z,1.15
2022-08-01T19:32:45.083Z,0.88
2022-08-01T19:35:15.092Z,0.93
2022-08-01T19:37:47.490Z,1.20
2022-08-01T19:40:27.312Z,1.50
2022-08-01T19:42:59.132Z,1.10
2022-08-01T19:45:30.389Z,1.10
2022-08-01T19:47:59.373Z,1.00
2022-08-01T19:50:28.177Z,1.00
2022-08-01T19:53:02.971Z,1.13
2022-08-01T19:55:39.645Z,1.27
2022-08-01T19:58:29.340Z,1.10
2022-08-01T20:00:57.501Z,1.13
2022-08-01T20:03:28.218Z,1.05
2022-08-01T20:05:56.611Z,1.73
2022-08-01T20:08:24.789Z,1.20
2022-08-01T20:10:53.455Z,1.17
2022-08-01T20:13:39.101Z,1.20
2022-08-01T20:16:08.402Z,1.25
2022-08-01T20:18:35.879Z,0.80
2022-08-01T20:21:04.198Z,1.00
2022-08-01T20:23:37.429Z,0.90
2022-08-01T20:26:05.807Z,1.20
2022-08-01T20:28:37.424Z,0.93
2022-08-01T20:31:08.363Z,1.00
2022-08-01T20:33:41.071Z,0.73
2022-08-01T20:36:12.246Z,1.05
2022-08-01T20:38:55.509Z,0.88
2022-08-01T20:41:29.131Z,0.98
2022-08-01T20:43:59.551Z,0.80
2022-08-01T20:46:29.522Z,0.90
2022-08-01T20:48:58.966Z,1.30
2022-08-01T20:51:28.837Z,1.30
2022-08-01T20:53:56.711Z,1.10
2022-08-01T20:56:38.392Z,0.90
2022-08-01T20:59:56.281Z,0.80
2022-08-01T21:02:51.549Z,0.80
2022-08-01T21:05:37.884Z,0.73
2022-08-01T21:08:17.855Z,0.80
2022-08-01T21:10:49.032Z,0.90
2022-08-01T21:13:23.816Z,0.80
2022-08-01T21:16:22.378Z,1.17
2022-08-01T21:19:16.910Z,0.80
2022-08-01T21:21:50.307Z,1.00
2022-08-01T21:24:19.395Z,0.95
2022-08-01T21:26:50.095Z,1.13
2022-08-01T21:29:23.488Z,0.95
2022-08-01T21:32:11.670Z,1.42
2022-08-01T21:34:43.586Z,1.20
2022-08-01T21:37:11.305Z,1.20
2022-08-01T21:39:40.589Z,0.95
2022-08-01T21:42:09.546Z,1.23
2022-08-01T21:44:39.959Z,1.25
2022-08-01T21:47:11.672Z,1.17
2022-08-01T21:49:40.817Z,1.02
2022-08-01T21:52:21.681Z,1.00
2022-08-01T21:55:15.515Z,0.93
2022-08-01T21:57:43.214Z,0.90
2022-08-01T22:00:24.976Z,0.90
2022-08-01T22:03:04.217Z,0.88
2022-08-01T22:05:49.611Z,1.15
2022-08-01T22:08:30.153Z,1.20
2022-08-01T22:11:00.407Z,1.00
2022-08-01T22:13:28.161Z,1.40
2022-08-01T22:15:57.899Z,1.88
2022-08-01T22:18:28.570Z,1.23
2022-08-01T22:20:56.355Z,1.15
2022-08-01T22:23:24.011Z,0.80
2022-08-01T22:25:55.647Z,1.30
2022-08-01T22:28:23.969Z,0.95
2022-08-01T22:30:52.563Z,1.48
2022-08-01T22:33:20.312Z,1.23
2022-08-01T22:35:52.840Z,1.20
2022-08-01T22:38:22.714Z,0.98
2022-08-01T22:40:53.327Z,1.10
2022-08-01T22:43:29.477Z,1.30
2022-08-01T22:46:20.793Z,1.45
2022-08-01T22:49:30.058Z,0.90
2022-08-01T22:52:24.511Z,0.70
2022-08-01T22:55:06.212Z,0.73
2022-08-01T22:57:42.320Z,1.13
2022-08-01T23:00:12.349Z,0.80
2022-08-01T23:03:26.945Z,1.05
2022-08-01T23:06:09.740Z,0.80
2022-08-01T23:08:38.034Z,0.90
2022-08-01T23:11:07.419Z,0.63
2022-08-01T23:13:34.819Z,0.80
2022-08-01T23:16:03.425Z,1.17
2022-08-01T23:18:31.705Z,1.00
2022-08-01T23:21:02.467Z,0.93
2022-08-01T23:23:31.868Z,1.05
2022-08-01T23:26:00.087Z,0.90
2022-08-01T23:28:29.308Z,1.00
2022-08-01T23:30:57.862Z,1.15
2022-08-01T23:33:25.322Z,1.00
2022-08-01T23:35:52.639Z,1.00
2022-08-01T23:38:20.422Z,0.90
2022-08-01T23:40:48.165Z,1.20
2022-08-01T23:43:17.641Z,1.05
2022-08-01T23:46:04.247Z,1.55
2022-08-01T23:48:34.085Z,1.70
2022-08-01T23:51:02.183Z,1.40
2022-08-01T23:53:30.827Z,1.25
2022-08-01T23:56:00.948Z,1.88
2022-08-01T23:58:29.162Z,1.10
